sensor_id;sensor_type;location;lat;lon;timestamp;pressure;altitude;pressure_sealevel;temperature;humidity
22550;BME280;11441;57.164;-2.120;2022-10-31T00:02:18;100043.28;;;11.00;100.00
22550;BME280;11441;57.164;-2.120;2022-10-31T00:04:45;100050.50;;;11.08;100.00
22550;BME280;11441;57.164;-2.120;2022-10-31T00:07:30;100052.03;;;11.05;100.00
22550;BME280;11441;57.164;-2.120;2022-10-31T00:10:15;100046.78;;;10.97;100.00
22550;BME280;11441;57.164;-2.120;2022-10-31T00:12:41;100052.66;;;10.95;100.00
22550;BME280;11441;57.164;-2.120;2022-10-31T00:15:08;100046.00;;;10.96;100.00
22550;BME280;11441;57.164;-2.120;2022-10-31T00:17:35;100061.03;;;11.02;100.00
22550;BME280;11441;57.164;-2.120;2022-10-31T00:20:03;100065.84;;;11.09;100.00
22550;BME280;11441;57.164;-2.120;2022-10-31T00:22:29;100065.78;;;11.05;100.00
22550;BME280;11441;57.164;-2.120;2022-10-31T00:24:56;100070.47;;;11.01;100.00
22550;BME280;11441;57.164;-2.120;2022-10-31T00:27:23;100085.88;;;11.06;100.00
22550;BME280;11441;57.164;-2.120;2022-10-31T00:29:53;100093.44;;;11.12;100.00
22550;BME280;11441;57.164;-2.120;2022-10-31T00:32:38;100096.75;;;10.95;100.00
22550;BME280;11441;57.164;-2.120;2022-10-31T00:35:05;100101.47;;;10.94;100.00
22550;BME280;11441;57.164;-2.120;2022-10-31T00:37:32;100100.31;;;10.96;100.00
22550;BME280;11441;57.164;-2.120;2022-10-31T00:39:59;100107.34;;;10.93;100.00
22550;BME280;11441;57.164;-2.120;2022-10-31T00:42:26;100110.16;;;10.97;100.00
22550;BME280;11441;57.164;-2.120;2022-10-31T00:44:54;100113.28;;;10.95;100.00
22550;BME280;11441;57.164;-2.120;2022-10-31T00:47:40;100117.31;;;11.01;100.00
22550;BME280;11441;57.164;-2.120;2022-10-31T00:50:07;100125.53;;;10.98;100.00
22550;BME280;11441;57.164;-2.120;2022-10-31T00:52:34;100117.69;;;11.00;100.00
22550;BME280;11441;57.164;-2.120;2022-10-31T00:55:02;100118.91;;;11.02;100.00
22550;BME280;11441;57.164;-2.120;2022-10-31T00:57:29;100127.28;;;10.83;100.00
22550;BME280;11441;57.164;-2.120;2022-10-31T00:59:56;100124.31;;;10.95;100.00
22550;BME280;11441;57.164;-2.120;2022-10-31T01:02:23;100124.41;;;11.02;100.00
22550;BME280;11441;57.164;-2.120;2022-10-31T01:04:50;100116.03;;;10.95;100.00
22550;BME280;11441;57.164;-2.120;2022-10-31T01:07:16;100134.28;;;11.03;100.00
22550;BME280;11441;57.164;-2.120;2022-10-31T01:09:43;100131.84;;;10.98;100.00
22550;BME280;11441;57.164;-2.120;2022-10-31T01:12:29;100132.56;;;10.95;100.00
22550;BME280;11441;57.164;-2.120;2022-10-31T01:14:56;100133.56;;;10.83;100.00
22550;BME280;11441;57.164;-2.120;2022-10-31T01:17:23;100138.44;;;10.93;100.00
22550;BME280;11441;57.164;-2.120;2022-10-31T01:19:50;100136.72;;;10.82;100.00
22550;BME280;11441;57.164;-2.120;2022-10-31T01:22:17;100130.94;;;10.90;100.00
22550;BME280;11441;57.164;-2.120;2022-10-31T01:24:44;100129.59;;;10.81;100.00
22550;BME280;11441;57.164;-2.120;2022-10-31T01:27:10;100126.22;;;10.91;100.00
22550;BME280;11441;57.164;-2.120;2022-10-31T01:29:37;100130.44;;;10.85;100.00
22550;BME280;11441;57.164;-2.120;2022-10-31T01:35:45;100133.50;;;10.80;100.00
22550;BME280;11441;57.164;-2.120;2022-10-31T01:38:12;100130.44;;;10.85;100.00
22550;BME280;11441;57.164;-2.120;2022-10-31T01:40:39;100135.97;;;10.85;100.00
22550;BME280;11441;57.164;-2.120;2022-10-31T01:43:11;100141.03;;;10.83;100.00
22550;BME280;11441;57.164;-2.120;2022-10-31T01:45:58;100142.53;;;10.77;100.00
22550;BME280;11441;57.164;-2.120;2022-10-31T01:48:26;100136.59;;;10.74;100.00
22550;BME280;11441;57.164;-2.120;2022-10-31T01:50:54;100147.59;;;10.74;100.00
22550;BME280;11441;57.164;-2.120;2022-10-31T01:53:22;100147.50;;;10.67;100.00
22550;BME280;11441;57.164;-2.120;2022-10-31T01:55:53;100157.53;;;10.79;100.00
22550;BME280;11441;57.164;-2.120;2022-10-31T01:58:22;100157.56;;;10.83;100.00
22550;BME280;11441;57.164;-2.120;2022-10-31T02:00:54;100150.50;;;10.82;100.00
22550;BME280;11441;57.164;-2.120;2022-10-31T02:03:26;100151.84;;;10.95;100.00
22550;BME280;11441;57.164;-2.120;2022-10-31T02:05:54;100147.22;;;10.99;100.00
22550;BME280;11441;57.164;-2.120;2022-10-31T02:08:33;100147.22;;;10.99;100.00
22550;BME280;11441;57.164;-2.120;2022-10-31T02:11:01;100149.59;;;11.01;100.00
22550;BME280;11441;57.164;-2.120;2022-10-31T02:13:28;100149.16;;;10.99;100.00
22550;BME280;11441;57.164;-2.120;2022-10-31T02:15:58;100144.78;;;10.94;100.00
22550;BME280;11441;57.164;-2.120;2022-10-31T02:18:28;100146.50;;;11.06;100.00
22550;BME280;11441;57.164;-2.120;2022-10-31T02:21:18;100139.09;;;11.10;100.00
22550;BME280;11441;57.164;-2.120;2022-10-31T02:24:23;100148.63;;;11.16;100.00
22550;BME280;11441;57.164;-2.120;2022-10-31T02:27:05;100153.81;;;11.21;100.00
22550;BME280;11441;57.164;-2.120;2022-10-31T02:35:41;100155.63;;;11.10;100.00
22550;BME280;11441;57.164;-2.120;2022-10-31T02:44:09;100163.75;;;10.99;100.00
22550;BME280;11441;57.164;-2.120;2022-10-31T02:46:48;100165.53;;;11.14;100.00
22550;BME280;11441;57.164;-2.120;2022-10-31T02:49:43;100170.50;;;11.05;100.00
22550;BME280;11441;57.164;-2.120;2022-10-31T02:52:22;100166.28;;;11.11;100.00
22550;BME280;11441;57.164;-2.120;2022-10-31T02:54:50;100159.59;;;11.12;100.00
22550;BME280;11441;57.164;-2.120;2022-10-31T02:57:25;100165.53;;;11.14;100.00
22550;BME280;11441;57.164;-2.120;2022-10-31T02:59:58;100165.69;;;11.25;100.00
22550;BME280;11441;57.164;-2.120;2022-10-31T03:02:44;100160.97;;;11.26;100.00
22550;BME280;11441;57.164;-2.120;2022-10-31T03:11:06;100146.81;;;11.27;100.00
22550;BME280;11441;57.164;-2.120;2022-10-31T03:19:12;100147.38;;;11.10;100.00
22550;BME280;11441;57.164;-2.120;2022-10-31T03:22:04;100153.66;;;11.10;100.00
22550;BME280;11441;57.164;-2.120;2022-10-31T03:24:37;100164.41;;;11.19;100.00
22550;BME280;11441;57.164;-2.120;2022-10-31T03:27:07;100157.38;;;11.22;100.00
22550;BME280;11441;57.164;-2.120;2022-10-31T03:29:37;100161.66;;;11.19;100.00
22550;BME280;11441;57.164;-2.120;2022-10-31T03:32:13;100164.09;;;11.24;100.00
22550;BME280;11441;57.164;-2.120;2022-10-31T03:34:45;100153.66;;;11.10;100.00
22550;BME280;11441;57.164;-2.120;2022-10-31T03:37:50;100156.88;;;11.16;100.00
22550;BME280;11441;57.164;-2.120;2022-10-31T03:40:21;100158.06;;;11.15;100.00
22550;BME280;11441;57.164;-2.120;2022-10-31T03:43:11;100165.53;;;11.14;100.00
22550;BME280;11441;57.164;-2.120;2022-10-31T03:48:44;100163.84;;;11.06;100.00
22550;BME280;11441;57.164;-2.120;2022-10-31T03:51:18;100156.84;;;11.12;100.00
22550;BME280;11441;57.164;-2.120;2022-10-31T03:53:56;100158.16;;;11.22;100.00
22550;BME280;11441;57.164;-2.120;2022-10-31T03:56:34;100151.31;;;11.12;100.00
22550;BME280;11441;57.164;-2.120;2022-10-31T03:59:17;100159.53;;;11.09;100.00
22550;BME280;11441;57.164;-2.120;2022-10-31T04:02:13;100152.81;;;11.06;100.00
22550;BME280;11441;57.164;-2.120;2022-10-31T04:04:44;100152.13;;;11.13;100.00
22550;BME280;11441;57.164;-2.120;2022-10-31T04:07:13;100144.25;;;11.11;100.00
22550;BME280;11441;57.164;-2.120;2022-10-31T04:09:43;100150.81;;;11.03;100.00
22550;BME280;11441;57.164;-2.120;2022-10-31T04:12:14;100137.88;;;11.07;100.00
22550;BME280;11441;57.164;-2.120;2022-10-31T04:15:15;100128.44;;;11.08;100.00
22550;BME280;11441;57.164;-2.120;2022-10-31T04:17:44;100124.81;;;11.01;100.00
22550;BME280;11441;57.164;-2.120;2022-10-31T04:20:17;100126.53;;;10.86;100.00
22550;BME280;11441;57.164;-2.120;2022-10-31T04:22:44;100120.19;;;10.82;100.00
22550;BME280;11441;57.164;-2.120;2022-10-31T04:25:11;100119.66;;;10.99;100.00
22550;BME280;11441;57.164;-2.120;2022-10-31T04:27:38;100132.38;;;10.81;100.00
22550;BME280;11441;57.164;-2.120;2022-10-31T04:30:07;100130.34;;;10.78;100.00
22550;BME280;11441;57.164;-2.120;2022-10-31T04:32:38;100129.50;;;10.73;100.00
22550;BME280;11441;57.164;-2.120;2022-10-31T04:35:06;100136.81;;;10.89;100.00
22550;BME280;11441;57.164;-2.120;2022-10-31T04:37:32;100139.91;;;10.84;100.00
22550;BME280;11441;57.164;-2.120;2022-10-31T04:40:01;100134.69;;;10.79;100.00
22550;BME280;11441;57.164;-2.120;2022-10-31T04:42:47;100147.44;;;10.87;100.00
22550;BME280;11441;57.164;-2.120;2022-10-31T04:45:14;100145.47;;;10.87;100.00
22550;BME280;11441;57.164;-2.120;2022-10-31T04:47:49;100150.53;;;10.85;100.00
22550;BME280;11441;57.164;-2.120;2022-10-31T04:50:16;100146.28;;;10.91;100.00
22550;BME280;11441;57.164;-2.120;2022-10-31T04:52:45;100139.56;;;10.89;100.00
22550;BME280;11441;57.164;-2.120;2022-10-31T04:55:16;100136.97;;;11.00;100.00
22550;BME280;11441;57.164;-2.120;2022-10-31T04:58:03;100140.53;;;11.00;100.00
22550;BME280;11441;57.164;-2.120;2022-10-31T05:00:32;100137.41;;;11.02;100.00
22550;BME280;11441;57.164;-2.120;2022-10-31T05:02:59;100140.06;;;10.94;100.00
22550;BME280;11441;57.164;-2.120;2022-10-31T05:05:29;100140.94;;;11.02;100.00
22550;BME280;11441;57.164;-2.120;2022-10-31T05:07:58;100139.38;;;11.01;100.00
22550;BME280;11441;57.164;-2.120;2022-10-31T05:10:28;100141.81;;;11.06;100.00
22550;BME280;11441;57.164;-2.120;2022-10-31T05:13:13;100121.78;;;11.09;100.00
22550;BME280;11441;57.164;-2.120;2022-10-31T05:15:59;100125.28;;;11.06;100.00
22550;BME280;11441;57.164;-2.120;2022-10-31T05:19:03;100128.81;;;11.07;100.00
22550;BME280;11441;57.164;-2.120;2022-10-31T05:21:49;100115.91;;;11.14;100.00
22550;BME280;11441;57.164;-2.120;2022-10-31T05:24:17;100117.09;;;11.13;100.00
22550;BME280;11441;57.164;-2.120;2022-10-31T05:26:46;100122.88;;;11.05;100.00
22550;BME280;11441;57.164;-2.120;2022-10-31T05:29:13;100130.63;;;10.96;100.00
22550;BME280;11441;57.164;-2.120;2022-10-31T05:31:40;100137.91;;;11.11;100.00
22550;BME280;11441;57.164;-2.120;2022-10-31T05:34:14;100143.31;;;11.04;100.00
22550;BME280;11441;57.164;-2.120;2022-10-31T05:36:44;100151.28;;;11.09;100.00
22550;BME280;11441;57.164;-2.120;2022-10-31T05:39:15;100147.16;;;10.96;100.00
22550;BME280;11441;57.164;-2.120;2022-10-31T05:41:46;100124.72;;;10.97;100.00
22550;BME280;11441;57.164;-2.120;2022-10-31T05:44:20;100125.53;;;10.98;100.00
22550;BME280;11441;57.164;-2.120;2022-10-31T05:47:01;100127.44;;;10.93;100.00
22550;BME280;11441;57.164;-2.120;2022-10-31T05:49:31;100126.28;;;10.94;100.00
22550;BME280;11441;57.164;-2.120;2022-10-31T05:52:36;100126.91;;;10.84;100.00
22550;BME280;11441;57.164;-2.120;2022-10-31T05:55:14;100123.06;;;10.89;100.00
22550;BME280;11441;57.164;-2.120;2022-10-31T05:57:55;100118.84;;;10.99;100.00
22550;BME280;11441;57.164;-2.120;2022-10-31T06:00:24;100122.84;;;11.01;100.00
22550;BME280;11441;57.164;-2.120;2022-10-31T06:03:17;100111.13;;;11.08;100.00
22550;BME280;11441;57.164;-2.120;2022-10-31T06:05:51;100107.13;;;11.05;100.00
22550;BME280;11441;57.164;-2.120;2022-10-31T06:08:24;100100.06;;;11.04;100.00
22550;BME280;11441;57.164;-2.120;2022-10-31T06:10:52;100095.22;;;10.98;100.00
22550;BME280;11441;57.164;-2.120;2022-10-31T06:13:40;100083.84;;;10.99;100.00
22550;BME280;11441;57.164;-2.120;2022-10-31T06:16:15;100075.03;;;10.90;100.00
22550;BME280;11441;57.164;-2.120;2022-10-31T06:18:45;100092.44;;;10.94;100.00
22550;BME280;11441;57.164;-2.120;2022-10-31T06:21:12;100080.06;;;10.84;100.00
22550;BME280;11441;57.164;-2.120;2022-10-31T06:23:44;100078.69;;;10.98;100.00
22550;BME280;11441;57.164;-2.120;2022-10-31T06:26:31;100075.56;;;10.99;100.00
22550;BME280;11441;57.164;-2.120;2022-10-31T06:29:17;100085.31;;;10.93;100.00
22550;BME280;11441;57.164;-2.120;2022-10-31T06:32:00;100092.75;;;10.89;100.00
22550;BME280;11441;57.164;-2.120;2022-10-31T06:34:28;100087.69;;;10.94;100.00
22550;BME280;11441;57.164;-2.120;2022-10-31T06:36:56;100094.03;;;10.99;100.00
22550;BME280;11441;57.164;-2.120;2022-10-31T06:39:25;100081.81;;;10.96;100.00
22550;BME280;11441;57.164;-2.120;2022-10-31T06:41:52;100070.91;;;11.03;100.00
22550;BME280;11441;57.164;-2.120;2022-10-31T06:44:20;100074.97;;;11.13;100.00
22550;BME280;11441;57.164;-2.120;2022-10-31T06:46:47;100078.09;;;11.11;100.00
22550;BME280;11441;57.164;-2.120;2022-10-31T06:49:46;100077.00;;;11.20;100.00
22550;BME280;11441;57.164;-2.120;2022-10-31T06:52:16;100066.84;;;11.24;100.00
22550;BME280;11441;57.164;-2.120;2022-10-31T06:55:03;100066.22;;;11.38;100.00
22550;BME280;11441;57.164;-2.120;2022-10-31T06:57:51;100057.06;;;11.30;100.00
22550;BME280;11441;57.164;-2.120;2022-10-31T07:00:18;100051.88;;;11.25;100.00
22550;BME280;11441;57.164;-2.120;2022-10-31T07:05:22;100056.19;;;11.22;100.00
22550;BME280;11441;57.164;-2.120;2022-10-31T07:07:57;100048.38;;;11.28;100.00
22550;BME280;11441;57.164;-2.120;2022-10-31T07:10:28;100058.31;;;11.36;100.00
22550;BME280;11441;57.164;-2.120;2022-10-31T07:13:06;100057.94;;;11.38;100.00
22550;BME280;11441;57.164;-2.120;2022-10-31T07:15:37;100046.50;;;11.36;100.00
22550;BME280;11441;57.164;-2.120;2022-10-31T07:18:42;100053.53;;;11.33;100.00
22550;BME280;11441;57.164;-2.120;2022-10-31T07:21:13;100065.69;;;11.28;100.00
22550;BME280;11441;57.164;-2.120;2022-10-31T07:23:40;100063.50;;;11.41;100.00
22550;BME280;11441;57.164;-2.120;2022-10-31T07:26:25;100074.06;;;11.36;100.00
22550;BME280;11441;57.164;-2.120;2022-10-31T07:28:54;100073.63;;;11.33;100.00
22550;BME280;11441;57.164;-2.120;2022-10-31T07:31:23;100081.84;;;11.30;100.00
22550;BME280;11441;57.164;-2.120;2022-10-31T07:33:53;100071.19;;;11.28;100.00
22550;BME280;11441;57.164;-2.120;2022-10-31T07:36:26;100087.03;;;11.35;100.00
22550;BME280;11441;57.164;-2.120;2022-10-31T07:38:57;100083.16;;;11.40;100.00
22550;BME280;11441;57.164;-2.120;2022-10-31T07:41:25;100077.31;;;11.45;100.00
22550;BME280;11441;57.164;-2.120;2022-10-31T07:43:53;100078.47;;;11.44;100.00
22550;BME280;11441;57.164;-2.120;2022-10-31T07:46:56;100071.31;;;11.36;100.00
22550;BME280;11441;57.164;-2.120;2022-10-31T07:49:41;100077.25;;;11.38;100.00
22550;BME280;11441;57.164;-2.120;2022-10-31T07:52:28;100087.53;;;11.41;100.00
22550;BME280;11441;57.164;-2.120;2022-10-31T07:58:28;100097.44;;;11.49;100.00
22550;BME280;11441;57.164;-2.120;2022-10-31T08:00:58;100104.06;;;11.41;100.00
22550;BME280;11441;57.164;-2.120;2022-10-31T08:03:33;100113.25;;;11.52;100.00
22550;BME280;11441;57.164;-2.120;2022-10-31T08:06:09;100116.72;;;11.45;100.00
22550;BME280;11441;57.164;-2.120;2022-10-31T08:08:50;100127.50;;;11.58;100.00
22550;BME280;11441;57.164;-2.120;2022-10-31T08:11:18;100128.69;;;11.57;100.00
22550;BME280;11441;57.164;-2.120;2022-10-31T08:14:05;100142.56;;;11.64;100.00
22550;BME280;11441;57.164;-2.120;2022-10-31T08:16:33;100133.75;;;11.55;100.00
22550;BME280;11441;57.164;-2.120;2022-10-31T08:19:03;100136.28;;;11.67;100.00
22550;BME280;11441;57.164;-2.120;2022-10-31T08:21:35;100137.09;;;11.67;100.00
22550;BME280;11441;57.164;-2.120;2022-10-31T08:24:02;100128.31;;;11.58;100.00
22550;BME280;11441;57.164;-2.120;2022-10-31T08:26:48;100138.72;;;11.72;100.00
22550;BME280;11441;57.164;-2.120;2022-10-31T08:29:15;100144.28;;;11.76;100.00
22550;BME280;11441;57.164;-2.120;2022-10-31T08:31:43;100142.00;;;11.85;100.00
22550;BME280;11441;57.164;-2.120;2022-10-31T08:34:28;100144.88;;;11.92;100.00
22550;BME280;11441;57.164;-2.120;2022-10-31T08:37:13;100131.44;;;11.91;100.00
22550;BME280;11441;57.164;-2.120;2022-10-31T08:39:51;100153.19;;;11.96;100.00
22550;BME280;11441;57.164;-2.120;2022-10-31T08:42:19;100141.38;;;11.95;100.00
22550;BME280;11441;57.164;-2.120;2022-10-31T08:45:05;100142.03;;;11.88;100.00
22550;BME280;11441;57.164;-2.120;2022-10-31T08:47:33;100141.84;;;12.04;100.00
22550;BME280;11441;57.164;-2.120;2022-10-31T08:50:18;100150.56;;;12.10;100.00
22550;BME280;11441;57.164;-2.120;2022-10-31T08:52:46;100140.28;;;12.03;100.00
22550;BME280;11441;57.164;-2.120;2022-10-31T08:55:36;100148.28;;;12.16;100.00
22550;BME280;11441;57.164;-2.120;2022-10-31T08:58:10;100140.75;;;12.13;100.00
22550;BME280;11441;57.164;-2.120;2022-10-31T09:00:48;100131.75;;;12.19;100.00
22550;BME280;11441;57.164;-2.120;2022-10-31T09:03:21;100119.13;;;12.18;100.00
22550;BME280;11441;57.164;-2.120;2022-10-31T09:05:48;100140.38;;;12.14;100.00
22550;BME280;11441;57.164;-2.120;2022-10-31T09:08:16;100123.25;;;11.98;100.00
22550;BME280;11441;57.164;-2.120;2022-10-31T09:10:45;100121.41;;;12.09;100.00
22550;BME280;11441;57.164;-2.120;2022-10-31T09:13:17;100124.91;;;12.06;100.00
22550;BME280;11441;57.164;-2.120;2022-10-31T09:16:03;100113.06;;;12.02;100.00
22550;BME280;11441;57.164;-2.120;2022-10-31T09:18:31;100098.81;;;12.00;100.00
22550;BME280;11441;57.164;-2.120;2022-10-31T09:21:34;100097.19;;;11.92;100.00
22550;BME280;11441;57.164;-2.120;2022-10-31T09:24:02;100094.53;;;12.02;100.00
22550;BME280;11441;57.164;-2.120;2022-10-31T09:26:30;100101.31;;;12.12;100.00
22550;BME280;11441;57.164;-2.120;2022-10-31T09:29:03;100094.94;;;12.04;100.00
22550;BME280;11441;57.164;-2.120;2022-10-31T09:31:31;100099.34;;;12.13;100.00
22550;BME280;11441;57.164;-2.120;2022-10-31T09:34:05;100095.38;;;12.10;100.00
22550;BME280;11441;57.164;-2.120;2022-10-31T09:36:36;100100.88;;;12.10;100.00
22550;BME280;11441;57.164;-2.120;2022-10-31T09:39:06;100093.41;;;12.07;100.00
22550;BME280;11441;57.164;-2.120;2022-10-31T09:42:01;100098.91;;;12.07;100.00
22550;BME280;11441;57.164;-2.120;2022-10-31T09:53:43;100095.13;;;12.26;100.00
22550;BME280;11441;57.164;-2.120;2022-10-31T09:56:19;100098.03;;;12.40;100.00
22550;BME280;11441;57.164;-2.120;2022-10-31T09:59:26;100098.03;;;12.40;100.00
22550;BME280;11441;57.164;-2.120;2022-10-31T10:02:00;100082.72;;;12.54;100.00
22550;BME280;11441;57.164;-2.120;2022-10-31T10:05:08;100084.28;;;12.51;100.00
22550;BME280;11441;57.164;-2.120;2022-10-31T10:08:03;100097.78;;;12.60;100.00
22550;BME280;11441;57.164;-2.120;2022-10-31T10:27:45;100090.00;;;12.80;100.00
22550;BME280;11441;57.164;-2.120;2022-10-31T10:30:17;100080.06;;;12.64;100.00
22550;BME280;11441;57.164;-2.120;2022-10-31T10:32:53;100090.66;;;12.59;100.00
22550;BME280;11441;57.164;-2.120;2022-10-31T10:37:55;100075.19;;;12.47;100.00
22550;BME280;11441;57.164;-2.120;2022-10-31T10:40:25;100083.13;;;12.52;100.00
22550;BME280;11441;57.164;-2.120;2022-10-31T10:43:01;100079.13;;;12.46;100.00
22550;BME280;11441;57.164;-2.120;2022-10-31T10:45:56;100080.75;;;12.51;100.00
22550;BME280;11441;57.164;-2.120;2022-10-31T11:00:26;100091.47;;;12.59;100.00
22550;BME280;11441;57.164;-2.120;2022-10-31T11:02:54;100079.97;;;12.57;100.00
22550;BME280;11441;57.164;-2.120;2022-10-31T11:08:26;100093.88;;;12.64;100.00
22550;BME280;11441;57.164;-2.120;2022-10-31T11:13:35;100093.53;;;12.73;100.00
22550;BME280;11441;57.164;-2.120;2022-10-31T11:18:32;100097.13;;;12.81;100.00
22550;BME280;11441;57.164;-2.120;2022-10-31T11:21:01;100082.94;;;12.86;100.00
22550;BME280;11441;57.164;-2.120;2022-10-31T11:23:30;100067.94;;;12.83;100.00
22550;BME280;11441;57.164;-2.120;2022-10-31T11:26:05;100079.81;;;12.91;100.00
22550;BME280;11441;57.164;-2.120;2022-10-31T11:28:57;100083.72;;;12.87;100.00
22550;BME280;11441;57.164;-2.120;2022-10-31T11:31:26;100077.34;;;12.75;100.00
22550;BME280;11441;57.164;-2.120;2022-10-31T11:37:15;100088.16;;;12.98;100.00
22550;BME280;11441;57.164;-2.120;2022-10-31T11:39:45;100092.06;;;12.94;100.00
22550;BME280;11441;57.164;-2.120;2022-10-31T11:42:25;100085.88;;;13.15;100.00
22550;BME280;11441;57.164;-2.120;2022-10-31T11:44:54;100080.59;;;12.88;100.00
22550;BME280;11441;57.164;-2.120;2022-10-31T11:47:29;100083.53;;;13.17;100.00
22550;BME280;11441;57.164;-2.120;2022-10-31T11:49:57;100078.34;;;13.12;100.00
22550;BME280;11441;57.164;-2.120;2022-10-31T11:52:28;100079.09;;;13.01;100.00
22550;BME280;11441;57.164;-2.120;2022-10-31T12:03:09;100085.34;;;12.91;100.00
22550;BME280;11441;57.164;-2.120;2022-10-31T12:08:56;100065.63;;;12.96;100.00
22550;BME280;11441;57.164;-2.120;2022-10-31T12:17:14;100069.22;;;13.04;100.00
22550;BME280;11441;57.164;-2.120;2022-10-31T12:28:28;100047.88;;;12.97;100.00
22550;BME280;11441;57.164;-2.120;2022-10-31T12:49:58;100044.38;;;13.11;100.00
22550;BME280;11441;57.164;-2.120;2022-10-31T12:52:33;100051.50;;;13.16;100.00
22550;BME280;11441;57.164;-2.120;2022-10-31T12:55:14;100051.88;;;13.07;100.00
22550;BME280;11441;57.164;-2.120;2022-10-31T12:58:16;100050.63;;;12.97;100.00
22550;BME280;11441;57.164;-2.120;2022-10-31T13:00:46;100049.03;;;12.93;100.00
22550;BME280;11441;57.164;-2.120;2022-10-31T13:03:26;100055.81;;;13.06;100.00
22550;BME280;11441;57.164;-2.120;2022-10-31T13:05:58;100046.25;;;12.86;100.00
22550;BME280;11441;57.164;-2.120;2022-10-31T13:08:30;100041.13;;;12.88;100.00
22550;BME280;11441;57.164;-2.120;2022-10-31T13:11:08;100044.25;;;12.82;100.00
22550;BME280;11441;57.164;-2.120;2022-10-31T13:14:01;100041.16;;;12.98;100.00
22550;BME280;11441;57.164;-2.120;2022-10-31T13:16:54;100041.88;;;12.85;100.00
22550;BME280;11441;57.164;-2.120;2022-10-31T13:19:34;100033.97;;;12.83;100.00
22550;BME280;11441;57.164;-2.120;2022-10-31T13:22:10;100043.84;;;12.80;100.00
22550;BME280;11441;57.164;-2.120;2022-10-31T13:25:03;100030.06;;;12.88;100.00
22550;BME280;11441;57.164;-2.120;2022-10-31T13:27:59;100041.94;;;12.95;100.00
22550;BME280;11441;57.164;-2.120;2022-10-31T13:30:31;100028.59;;;13.12;100.00
22550;BME280;11441;57.164;-2.120;2022-10-31T13:33:04;100029.38;;;13.09;100.00
22550;BME280;11441;57.164;-2.120;2022-10-31T13:44:43;100021.94;;;13.24;100.00
22550;BME280;11441;57.164;-2.120;2022-10-31T13:47:27;100022.34;;;13.26;100.00
22550;BME280;11441;57.164;-2.120;2022-10-31T13:50:19;100010.56;;;13.39;100.00
22550;BME280;11441;57.164;-2.120;2022-10-31T13:52:46;100010.94;;;13.34;100.00
22550;BME280;11441;57.164;-2.120;2022-10-31T13:55:37;100012.13;;;13.48;100.00
22550;BME280;11441;57.164;-2.120;2022-10-31T13:58:20;100010.09;;;13.30;100.00
22550;BME280;11441;57.164;-2.120;2022-10-31T14:03:38;100014.00;;;13.18;100.00
22550;BME280;11441;57.164;-2.120;2022-10-31T14:09:18;100001.38;;;13.25;100.00
22550;BME280;11441;57.164;-2.120;2022-10-31T14:14:52;99992.69;;;13.19;100.00
22550;BME280;11441;57.164;-2.120;2022-10-31T14:17:28;99992.28;;;13.13;100.00
22550;BME280;11441;57.164;-2.120;2022-10-31T14:23:39;99977.97;;;12.93;100.00
22550;BME280;11441;57.164;-2.120;2022-10-31T14:26:33;99969.34;;;13.13;100.00
22550;BME280;11441;57.164;-2.120;2022-10-31T14:32:17;99954.28;;;12.92;100.00
22550;BME280;11441;57.164;-2.120;2022-10-31T14:34:55;99960.63;;;12.96;100.00
22550;BME280;11441;57.164;-2.120;2022-10-31T14:38:01;99970.91;;;12.99;100.00
22550;BME280;11441;57.164;-2.120;2022-10-31T14:40:35;99945.56;;;12.90;100.00
22550;BME280;11441;57.164;-2.120;2022-10-31T14:51:41;99945.59;;;12.97;100.00
22550;BME280;11441;57.164;-2.120;2022-10-31T14:54:15;99948.34;;;12.90;100.00
22550;BME280;11441;57.164;-2.120;2022-10-31T14:57:03;99953.09;;;12.93;100.00
22550;BME280;11441;57.164;-2.120;2022-10-31T14:59:34;99955.06;;;12.93;100.00
22550;BME280;11441;57.164;-2.120;2022-10-31T15:02:34;99958.22;;;12.91;100.00
22550;BME280;11441;57.164;-2.120;2022-10-31T15:05:06;99952.28;;;12.82;100.00
22550;BME280;11441;57.164;-2.120;2022-10-31T15:07:34;99944.81;;;12.93;100.00
22550;BME280;11441;57.164;-2.120;2022-10-31T15:10:06;99953.13;;;13.00;100.00
22550;BME280;11441;57.164;-2.120;2022-10-31T15:12:34;99947.56;;;12.97;100.00
22550;BME280;11441;57.164;-2.120;2022-10-31T15:15:12;99949.53;;;12.93;100.00
22550;BME280;11441;57.164;-2.120;2022-10-31T15:17:59;99947.16;;;12.88;100.00
22550;BME280;11441;57.164;-2.120;2022-10-31T15:20:30;99945.56;;;12.83;100.00
22550;BME280;11441;57.164;-2.120;2022-10-31T15:22:59;99946.28;;;12.73;100.00
22550;BME280;11441;57.164;-2.120;2022-10-31T15:25:31;99946.31;;;12.76;100.00
22550;BME280;11441;57.164;-2.120;2022-10-31T15:28:00;99953.06;;;12.86;100.00
22550;BME280;11441;57.164;-2.120;2022-10-31T15:30:28;99946.75;;;12.82;100.00
22550;BME280;11441;57.164;-2.120;2022-10-31T15:32:55;99944.38;;;12.84;100.00
22550;BME280;11441;57.164;-2.120;2022-10-31T15:35:39;99937.28;;;12.87;100.00
22550;BME280;11441;57.164;-2.120;2022-10-31T15:38:07;99944.38;;;12.84;100.00
22550;BME280;11441;57.164;-2.120;2022-10-31T15:40:36;99933.34;;;12.91;100.00
22550;BME280;11441;57.164;-2.120;2022-10-31T15:43:21;99934.88;;;12.78;100.00
22550;BME280;11441;57.164;-2.120;2022-10-31T15:45:48;99928.16;;;12.75;100.00
22550;BME280;11441;57.164;-2.120;2022-10-31T15:48:22;99937.66;;;12.85;100.00
22550;BME280;11441;57.164;-2.120;2022-10-31T15:50:53;99929.75;;;12.80;100.00
22550;BME280;11441;57.164;-2.120;2022-10-31T15:53:27;99936.84;;;12.77;100.00
22550;BME280;11441;57.164;-2.120;2022-10-31T15:56:01;99934.06;;;12.74;100.00
22550;BME280;11441;57.164;-2.120;2022-10-31T15:58:48;99938.31;;;12.57;100.00